createdAt,value
2024-01-21T00:01:17.689Z,-0.84
2024-01-21T00:03:46.230Z,-0.87
2024-01-21T00:06:14.336Z,-0.99
2024-01-21T00:08:42.298Z,-0.84
2024-01-21T00:11:10.814Z,-0.92
2024-01-21T00:13:38.939Z,-1.09
2024-01-21T00:16:07.337Z,-1.20
2024-01-21T00:18:35.689Z,-0.86
2024-01-21T00:21:03.739Z,-0.90
2024-01-21T00:23:31.740Z,-0.76
2024-01-21T00:26:00.105Z,-0.92
2024-01-21T00:28:28.791Z,-0.99
2024-01-21T00:30:56.806Z,-1.13
2024-01-21T00:33:25.185Z,-1.07
2024-01-21T00:35:53.240Z,-1.07
2024-01-21T00:38:21.349Z,-0.98
2024-01-21T00:40:49.718Z,-0.93
2024-01-21T00:43:17.708Z,-1.32
2024-01-21T00:45:45.723Z,-1.30
2024-01-21T00:48:14.194Z,-1.07
2024-01-21T00:50:42.213Z,-0.95
2024-01-21T00:53:10.648Z,-1.24
2024-01-21T00:55:38.870Z,-1.38
2024-01-21T00:58:06.785Z,-1.28
2024-01-21T01:00:34.766Z,-1.40
2024-01-21T01:03:03.343Z,-1.55
2024-01-21T01:05:31.779Z,-1.47
2024-01-21T01:07:59.790Z,-1.27
2024-01-21T01:10:28.049Z,-1.29
2024-01-21T01:12:57.140Z,-1.35
2024-01-21T01:15:25.144Z,-1.27
2024-01-21T01:17:53.606Z,-1.40
2024-01-21T01:20:22.293Z,-1.46
2024-01-21T01:22:50.390Z,-1.71
2024-01-21T01:25:18.649Z,-1.62
2024-01-21T01:27:46.776Z,-1.74
2024-01-21T01:30:15.551Z,-1.86
2024-01-21T01:32:43.823Z,-1.96
2024-01-21T01:35:11.994Z,-1.98
2024-01-21T01:37:39.882Z,-1.86
2024-01-21T01:40:08.562Z,-1.63
2024-01-21T01:42:37.093Z,-1.99
2024-01-21T01:45:05.631Z,-1.92
2024-01-21T01:47:34.565Z,-2.01
2024-01-21T01:50:02.826Z,-1.99
2024-01-21T01:52:30.802Z,-1.89
2024-01-21T01:54:58.991Z,-1.88
2024-01-21T01:57:27.704Z,-1.69
2024-01-21T01:59:56.099Z,-1.75
2024-01-21T02:02:24.778Z,-1.65
2024-01-21T02:04:53.255Z,-1.76
2024-01-21T02:07:21.416Z,-1.64
2024-01-21T02:09:49.539Z,-1.74
2024-01-21T02:12:19.559Z,-1.74
2024-01-21T02:14:47.600Z,-1.98
2024-01-21T02:17:15.527Z,-2.06
2024-01-21T02:19:43.834Z,-2.05
2024-01-21T02:22:11.873Z,-2.07
2024-01-21T02:24:40.077Z,-1.92
2024-01-21T02:27:08.346Z,-2.00
2024-01-21T02:29:36.386Z,-2.14
2024-01-21T02:32:05.364Z,-2.10
2024-01-21T02:34:33.723Z,-2.24
2024-01-21T02:37:01.729Z,-2.15
2024-01-21T02:39:29.675Z,-2.12
2024-01-21T02:41:57.847Z,-2.11
2024-01-21T02:44:25.742Z,-2.25
2024-01-21T02:46:53.649Z,-2.13
2024-01-21T02:49:25.171Z,-2.09
2024-01-21T02:51:53.315Z,-1.91
2024-01-21T02:54:21.508Z,-1.99
2024-01-21T02:56:49.597Z,-2.02
2024-01-21T02:59:17.893Z,-2.20
2024-01-21T03:01:46.444Z,-2.10
2024-01-21T03:04:14.950Z,-2.23
2024-01-21T03:06:43.772Z,-2.36
2024-01-21T03:09:12.103Z,-2.32
2024-01-21T03:11:40.023Z,-2.34
2024-01-21T03:14:08.750Z,-2.39
2024-01-21T03:16:37.244Z,-2.40
2024-01-21T03:19:05.175Z,-2.41
2024-01-21T03:21:33.213Z,-2.13
2024-01-21T03:24:01.492Z,-2.21
2024-01-21T03:26:29.537Z,-2.11
2024-01-21T03:28:58.253Z,-2.18
2024-01-21T03:31:26.670Z,-2.21
2024-01-21T03:33:55.509Z,-2.20
2024-01-21T03:36:23.627Z,-2.04
2024-01-21T03:38:51.977Z,-2.16
2024-01-21T03:41:20.894Z,-2.27
2024-01-21T03:43:49.048Z,-2.18
2024-01-21T03:46:18.242Z,-2.26
2024-01-21T03:48:46.646Z,-2.31
2024-01-21T03:51:15.275Z,-2.43
2024-01-21T03:53:43.613Z,-2.57
2024-01-21T03:56:19.424Z,-2.70
2024-01-21T03:58:48.307Z,-2.72
2024-01-21T04:01:16.450Z,-2.78
2024-01-21T04:03:45.058Z,-2.48
2024-01-21T04:06:13.161Z,-2.81
2024-01-21T04:08:41.286Z,-2.77
2024-01-21T04:11:09.612Z,-2.86
2024-01-21T04:13:37.553Z,-2.94
2024-01-21T04:16:05.789Z,-3.07
2024-01-21T04:18:34.262Z,-2.95
2024-01-21T04:21:03.049Z,-2.88
2024-01-21T04:23:31.051Z,-2.82
2024-01-21T04:26:00.781Z,-2.89
2024-01-21T04:28:29.133Z,-2.95
2024-01-21T04:30:57.860Z,-2.93
2024-01-21T04:33:26.378Z,-3.00
2024-01-21T04:35:54.967Z,-3.05
2024-01-21T04:38:24.951Z,-3.07
2024-01-21T04:40:56.062Z,-3.10
2024-01-21T04:43:24.055Z,-3.04
2024-01-21T04:45:52.161Z,-3.06
2024-01-21T04:48:20.559Z,-3.10
2024-01-21T04:50:48.642Z,-3.03
2024-01-21T04:53:16.658Z,-3.11
2024-01-21T04:55:44.903Z,-3.11
2024-01-21T04:58:14.159Z,-3.14
2024-01-21T05:00:42.187Z,-3.14
2024-01-21T05:03:10.531Z,-3.10
2024-01-21T05:05:38.528Z,-3.19
2024-01-21T05:08:06.981Z,-3.14
2024-01-21T05:10:36.177Z,-3.19
2024-01-21T05:13:04.673Z,-3.21
2024-01-21T05:15:32.911Z,-3.32
2024-01-21T05:18:01.521Z,-3.33
2024-01-21T05:20:29.767Z,-3.41
2024-01-21T05:22:57.856Z,-3.41
2024-01-21T05:25:26.640Z,-3.36
2024-01-21T05:27:54.624Z,-3.24
2024-01-21T05:30:23.152Z,-3.43
2024-01-21T05:32:52.384Z,-3.30
2024-01-21T05:35:20.802Z,-3.35
2024-01-21T05:37:50.228Z,-3.42
2024-01-21T05:40:18.566Z,-3.30
2024-01-21T05:42:46.821Z,-3.42
2024-01-21T05:45:14.845Z,-3.36
2024-01-21T05:47:43.389Z,-3.37
2024-01-21T05:50:11.415Z,-3.37
2024-01-21T05:52:39.367Z,-3.21
2024-01-21T05:55:08.111Z,-3.19
2024-01-21T05:57:36.209Z,-3.19
2024-01-21T06:00:04.363Z,-3.37
2024-01-21T06:02:40.426Z,-3.27
2024-01-21T06:05:08.677Z,-3.22
2024-01-21T06:07:36.603Z,-3.16
2024-01-21T06:10:05.168Z,-3.15
2024-01-21T06:12:33.781Z,-3.26
2024-01-21T06:15:02.294Z,-3.44
2024-01-21T06:17:30.328Z,-3.45
2024-01-21T06:19:58.567Z,-3.43
2024-01-21T06:22:26.492Z,-3.48
2024-01-21T06:24:54.444Z,-5.26
2024-01-21T06:27:22.843Z,-3.48
2024-01-21T06:29:50.910Z,-3.42
2024-01-21T06:32:18.929Z,-3.43
2024-01-21T06:34:47.398Z,-3.43
2024-01-21T06:37:15.763Z,-3.44
2024-01-21T06:39:54.201Z,-3.50
2024-01-21T06:42:26.052Z,-3.58
2024-01-21T06:44:53.921Z,-3.53
2024-01-21T06:47:21.918Z,-3.46
2024-01-21T06:49:50.399Z,-3.47
2024-01-21T06:52:18.735Z,-3.31
2024-01-21T06:54:47.095Z,-3.12
2024-01-21T06:57:15.418Z,-2.94
2024-01-21T06:59:43.646Z,-2.72
2024-01-21T07:02:12.709Z,-2.72
2024-01-21T07:04:41.109Z,-2.58
2024-01-21T07:07:09.846Z,-2.57
2024-01-21T07:09:42.008Z,-2.48
2024-01-21T07:12:10.278Z,-2.34
2024-01-21T07:14:38.332Z,-2.35
2024-01-21T07:17:06.611Z,-2.46
2024-01-21T07:19:35.584Z,-2.40
2024-01-21T07:22:04.081Z,-2.30
2024-01-21T07:24:32.248Z,-2.17
2024-01-21T07:27:00.784Z,-2.17
2024-01-21T07:29:31.191Z,-2.17
2024-01-21T07:31:59.534Z,-2.09
2024-01-21T07:34:29.175Z,-2.18
2024-01-21T07:36:57.680Z,-2.37
2024-01-21T07:39:26.362Z,-2.25
2024-01-21T07:41:55.534Z,-2.13
2024-01-21T07:44:23.554Z,-2.07
2024-01-21T07:46:51.867Z,-2.03
2024-01-21T07:49:20.283Z,-1.96
2024-01-21T07:51:48.549Z,-2.04
2024-01-21T07:54:16.885Z,-1.93
2024-01-21T07:56:45.356Z,-1.83
2024-01-21T07:59:14.368Z,-1.81
2024-01-21T08:01:42.706Z,-1.82
2024-01-21T08:04:11.209Z,-1.95
2024-01-21T08:06:39.668Z,-1.96
2024-01-21T08:09:07.609Z,-1.81
2024-01-21T08:11:37.091Z,-1.91
2024-01-21T08:14:05.268Z,-1.63
2024-01-21T08:16:33.464Z,-1.61
2024-01-21T08:19:02.730Z,-1.51
2024-01-21T08:21:31.316Z,-1.33
2024-01-21T08:24:00.169Z,-1.23
2024-01-21T08:26:28.720Z,-1.13
2024-01-21T08:28:56.806Z,-1.16
2024-01-21T08:31:24.888Z,-1.22
2024-01-21T08:33:53.649Z,-0.93
2024-01-21T08:36:22.258Z,-0.72
2024-01-21T08:38:52.532Z,-0.42
2024-01-21T08:41:22.052Z,-0.46
2024-01-21T08:43:52.483Z,-0.42
2024-01-21T08:46:20.924Z,-0.24
2024-01-21T08:48:49.056Z,0.05
2024-01-21T08:51:21.132Z,0.30
2024-01-21T08:53:56.530Z,0.58
2024-01-21T08:56:26.540Z,0.44
2024-01-21T08:58:55.066Z,0.93
2024-01-21T09:01:24.707Z,1.06
2024-01-21T09:03:52.832Z,1.31
2024-01-21T09:06:21.350Z,1.33
2024-01-21T09:08:53.307Z,1.47
2024-01-21T09:11:22.377Z,0.72
2024-01-21T09:13:50.817Z,1.46
2024-01-21T09:16:20.706Z,1.57
2024-01-21T09:18:49.595Z,1.59
2024-01-21T09:21:26.731Z,1.91
2024-01-21T09:24:02.390Z,1.89
2024-01-21T09:26:30.562Z,2.26
2024-01-21T09:28:59.048Z,2.39
2024-01-21T09:31:27.597Z,2.28
2024-01-21T09:33:57.894Z,2.47
2024-01-21T09:36:26.441Z,2.31
2024-01-21T09:38:55.802Z,2.58
2024-01-21T09:41:39.377Z,2.67
2024-01-21T09:44:08.289Z,2.52
2024-01-21T09:46:36.468Z,2.70
2024-01-21T09:49:05.582Z,2.84
2024-01-21T09:51:38.299Z,1.99
2024-01-21T09:54:07.909Z,2.64
2024-01-21T09:56:37.784Z,2.87
2024-01-21T09:59:09.894Z,3.28
2024-01-21T10:01:42.359Z,3.31
2024-01-21T10:04:13.300Z,3.36
2024-01-21T10:06:42.047Z,2.60
2024-01-21T10:09:19.692Z,3.44
2024-01-21T10:11:58.130Z,3.73
2024-01-21T10:14:27.758Z,3.68
2024-01-21T10:17:00.166Z,3.66
2024-01-21T10:19:35.462Z,3.78
2024-01-21T10:22:17.604Z,3.77
2024-01-21T10:24:48.170Z,4.03
2024-01-21T10:27:17.157Z,4.01
2024-01-21T10:29:46.831Z,4.11
2024-01-21T10:32:16.939Z,3.28
2024-01-21T10:34:50.416Z,3.72
2024-01-21T10:37:21.882Z,3.43
2024-01-21T10:39:51.004Z,3.69
2024-01-21T10:42:22.066Z,3.80
2024-01-21T10:44:51.254Z,3.90
2024-01-21T10:47:21.421Z,4.04
2024-01-21T10:49:50.494Z,4.04
2024-01-21T10:52:20.769Z,4.01
2024-01-21T10:54:49.384Z,3.27
2024-01-21T10:57:19.127Z,3.92
2024-01-21T10:59:51.036Z,3.54
2024-01-21T11:02:20.934Z,4.02
2024-01-21T11:04:49.377Z,3.84
2024-01-21T11:07:19.334Z,3.66
2024-01-21T11:09:49.549Z,2.87
2024-01-21T11:12:18.344Z,2.48
2024-01-21T11:14:47.685Z,3.20
2024-01-21T11:17:19.230Z,3.09
2024-01-21T11:19:50.855Z,2.95
2024-01-21T11:22:25.446Z,2.80
2024-01-21T11:24:55.719Z,2.74
2024-01-21T11:27:31.124Z,3.11
2024-01-21T11:30:02.154Z,3.05
2024-01-21T11:32:32.609Z,2.87
2024-01-21T11:35:14.126Z,3.45
2024-01-21T11:37:42.392Z,3.48
2024-01-21T11:40:11.933Z,3.59
2024-01-21T11:42:40.679Z,3.55
2024-01-21T11:45:11.182Z,3.51
2024-01-21T11:47:41.759Z,3.31
2024-01-21T11:50:11.246Z,3.37
2024-01-21T11:52:40.340Z,3.42
2024-01-21T11:55:09.030Z,2.94
2024-01-21T11:57:37.261Z,3.11
2024-01-21T12:00:06.377Z,3.03
2024-01-21T12:02:40.455Z,2.17
2024-01-21T12:05:09.373Z,2.49
2024-01-21T12:07:37.681Z,2.44
2024-01-21T12:10:06.323Z,2.49
2024-01-21T12:12:34.995Z,2.25
2024-01-21T12:15:04.063Z,2.40
2024-01-21T12:17:32.720Z,2.18
2024-01-21T12:20:01.422Z,2.14
2024-01-21T12:22:40.646Z,2.02
2024-01-21T12:25:09.857Z,2.18
2024-01-21T12:27:42.502Z,2.22
2024-01-21T12:30:14.857Z,2.01
2024-01-21T12:32:53.436Z,2.06
2024-01-21T12:35:27.482Z,1.92
2024-01-21T12:37:55.815Z,1.91
2024-01-21T12:40:24.858Z,1.97
2024-01-21T12:42:54.067Z,2.10
2024-01-21T12:45:23.469Z,1.70
2024-01-21T12:47:53.099Z,1.78
2024-01-21T12:50:22.782Z,1.85
2024-01-21T12:52:51.241Z,1.83
2024-01-21T12:55:19.259Z,1.83
2024-01-21T12:57:47.452Z,1.77
2024-01-21T13:00:15.945Z,1.80
2024-01-21T13:02:45.225Z,1.80
2024-01-21T13:05:14.558Z,1.73
2024-01-21T13:07:42.790Z,1.68
2024-01-21T13:10:11.159Z,1.78
2024-01-21T13:12:39.909Z,1.77
2024-01-21T13:15:09.637Z,1.71
2024-01-21T13:17:38.116Z,1.79
2024-01-21T13:20:07.732Z,1.76
2024-01-21T13:22:38.805Z,1.62
2024-01-21T13:25:07.765Z,1.64
2024-01-21T13:27:44.480Z,1.52
2024-01-21T13:30:32.393Z,1.58
2024-01-21T13:33:00.934Z,1.54
2024-01-21T13:35:30.007Z,1.68
2024-01-21T13:37:58.749Z,1.55
2024-01-21T13:40:27.477Z,1.44
2024-01-21T13:42:55.921Z,1.53
2024-01-21T13:45:24.758Z,1.55
2024-01-21T13:47:53.223Z,1.54
2024-01-21T13:50:26.281Z,1.62
2024-01-21T13:53:00.229Z,1.57
2024-01-21T13:55:31.958Z,1.62
2024-01-21T13:58:03.552Z,1.57
2024-01-21T14:00:34.655Z,1.55
2024-01-21T14:03:06.358Z,1.50
2024-01-21T14:05:39.746Z,1.53
2024-01-21T14:08:09.196Z,1.48
2024-01-21T14:10:42.053Z,1.44
2024-01-21T14:13:11.292Z,1.43
2024-01-21T14:15:40.922Z,1.43
2024-01-21T14:18:11.640Z,1.39
2024-01-21T14:20:42.717Z,1.34
2024-01-21T14:23:17.802Z,1.33
2024-01-21T14:25:49.655Z,1.19
2024-01-21T14:28:21.372Z,1.17
2024-01-21T14:30:54.901Z,1.14
2024-01-21T14:33:23.741Z,1.12
2024-01-21T14:35:54.630Z,1.08
2024-01-21T14:38:28.378Z,1.07
2024-01-21T14:41:03.665Z,1.01
2024-01-21T14:43:37.434Z,0.98
2024-01-21T14:46:13.268Z,0.99
2024-01-21T14:48:46.650Z,0.93
2024-01-21T14:51:20.411Z,0.88
2024-01-21T14:53:50.142Z,0.83
2024-01-21T14:56:22.554Z,0.73
2024-01-21T14:58:59.281Z,0.70
2024-01-21T15:01:30.712Z,0.67
2024-01-21T15:04:04.078Z,0.65
2024-01-21T15:06:34.511Z,0.54
2024-01-21T15:09:07.134Z,0.44
2024-01-21T15:11:41.683Z,0.39
2024-01-21T15:14:26.000Z,0.32
2024-01-21T15:16:59.245Z,0.20
2024-01-21T15:19:32.655Z,0.14
2024-01-21T15:22:05.909Z,0.08
2024-01-21T15:24:39.507Z,0.00
2024-01-21T15:27:12.782Z,-0.11
2024-01-21T15:29:45.646Z,-0.15
2024-01-21T15:32:17.772Z,-0.21
2024-01-21T15:34:49.343Z,-0.23
2024-01-21T15:37:21.951Z,-0.27
2024-01-21T15:39:54.425Z,-0.37
2024-01-21T15:42:28.321Z,-0.42
2024-01-21T15:44:58.714Z,-0.46
2024-01-21T15:47:33.694Z,-0.46
2024-01-21T15:50:06.688Z,-0.51
2024-01-21T15:52:40.741Z,-0.58
2024-01-21T15:55:14.610Z,-0.52
2024-01-21T15:57:47.770Z,-0.57
2024-01-21T16:00:20.890Z,-0.58
2024-01-21T16:02:53.616Z,-0.65
2024-01-21T16:05:23.020Z,-0.71
2024-01-21T16:07:53.650Z,-0.72
2024-01-21T16:10:22.436Z,-0.82
2024-01-21T16:12:54.241Z,-0.80
2024-01-21T16:15:22.903Z,-0.83
2024-01-21T16:17:52.100Z,-0.91
2024-01-21T16:20:24.871Z,-0.88
2024-01-21T16:22:55.149Z,-0.94
2024-01-21T16:25:26.382Z,-0.89
2024-01-21T16:27:55.401Z,-0.95
2024-01-21T16:30:26.125Z,-0.98
2024-01-21T16:32:54.705Z,-1.09
2024-01-21T16:35:24.242Z,-1.07
2024-01-21T16:37:52.673Z,-1.03
2024-01-21T16:40:21.721Z,-1.08
2024-01-21T16:42:50.086Z,-1.08
2024-01-21T16:45:21.606Z,-1.20
2024-01-21T16:47:51.052Z,-1.25
2024-01-21T16:50:19.958Z,-1.28
2024-01-21T16:52:56.538Z,-1.33
2024-01-21T16:55:25.133Z,-1.47
2024-01-21T16:57:53.257Z,-1.44
2024-01-21T17:00:24.397Z,-1.44
2024-01-21T17:02:55.805Z,-1.49
2024-01-21T17:05:24.753Z,-1.63
2024-01-21T17:07:53.569Z,-1.68
2024-01-21T17:10:55.205Z,-1.76
2024-01-21T17:13:24.052Z,-1.76
2024-01-21T17:15:52.222Z,-1.68
2024-01-21T17:18:23.292Z,-1.80
2024-01-21T17:20:53.553Z,-1.78
2024-01-21T17:23:21.927Z,-1.74
2024-01-21T17:25:50.573Z,-1.88
2024-01-21T17:28:19.182Z,-1.88
2024-01-21T17:30:48.378Z,-1.93
2024-01-21T17:33:17.629Z,-1.88
2024-01-21T17:35:46.676Z,-1.98
2024-01-21T17:38:14.992Z,-1.89
2024-01-21T17:40:42.973Z,-1.88
2024-01-21T17:43:11.369Z,-1.99
2024-01-21T17:45:39.720Z,-2.01
2024-01-21T17:48:08.670Z,-2.05
2024-01-21T17:50:37.139Z,-2.05
2024-01-21T17:53:05.722Z,-2.07
2024-01-21T17:55:33.732Z,-2.08
2024-01-21T17:58:02.511Z,-2.18
2024-01-21T18:00:30.771Z,-2.23
2024-01-21T18:02:59.355Z,-2.23
2024-01-21T18:05:28.225Z,-2.17
2024-01-21T18:08:00.613Z,-2.24
2024-01-21T18:10:29.394Z,-2.14
2024-01-21T18:12:57.682Z,-2.21
2024-01-21T18:15:25.967Z,-2.30
2024-01-21T18:17:54.300Z,-2.33
2024-01-21T18:20:22.812Z,-2.32
2024-01-21T18:22:52.135Z,-2.42
2024-01-21T18:25:20.439Z,-2.35
2024-01-21T18:27:48.880Z,-2.45
2024-01-21T18:30:16.938Z,-2.47
2024-01-21T18:32:46.768Z,-2.50
2024-01-21T18:35:16.282Z,-2.48
2024-01-21T18:37:44.527Z,-2.48
2024-01-21T18:40:13.476Z,-2.46
2024-01-21T18:42:41.522Z,-2.48
2024-01-21T18:45:10.408Z,-2.57
2024-01-21T18:47:39.627Z,-2.61
2024-01-21T18:50:08.412Z,-2.63
2024-01-21T18:52:36.511Z,-2.75
2024-01-21T18:55:05.106Z,-2.79
2024-01-21T18:57:33.141Z,-2.75
2024-01-21T19:00:01.553Z,-2.88
2024-01-21T19:02:30.288Z,-2.99
2024-01-21T19:04:58.560Z,-2.91
2024-01-21T19:07:32.665Z,-2.92
2024-01-21T19:10:02.302Z,-2.99
2024-01-21T19:12:33.883Z,-3.03
2024-01-21T19:15:02.907Z,-2.96
2024-01-21T19:17:31.304Z,-2.98
2024-01-21T19:20:01.112Z,-2.93
2024-01-21T19:22:30.738Z,-2.91
2024-01-21T19:24:58.851Z,-2.99
2024-01-21T19:27:27.859Z,-3.16
2024-01-21T19:29:57.273Z,-3.12
2024-01-21T19:32:25.596Z,-3.18
2024-01-21T19:34:54.815Z,-3.27
2024-01-21T19:37:23.216Z,-3.61
2024-01-21T19:39:51.532Z,-3.42
2024-01-21T19:42:19.704Z,-3.44
2024-01-21T19:44:50.825Z,-3.34
2024-01-21T19:47:19.448Z,-3.22
2024-01-21T19:49:47.989Z,-3.15
2024-01-21T19:52:17.651Z,-3.15
2024-01-21T19:54:45.577Z,-3.09
2024-01-21T19:57:14.825Z,-3.05
2024-01-21T19:59:42.821Z,-3.00
2024-01-21T20:02:12.937Z,-2.99
2024-01-21T20:04:41.367Z,-3.12
2024-01-21T20:07:09.708Z,-3.05
2024-01-21T20:09:37.762Z,-3.03
2024-01-21T20:12:06.420Z,-3.04
2024-01-21T20:14:34.448Z,-3.06
2024-01-21T20:17:02.789Z,-2.96
2024-01-21T20:19:31.182Z,-2.94
2024-01-21T20:21:59.231Z,-3.16
2024-01-21T20:24:27.493Z,-3.40
2024-01-21T20:26:55.994Z,-3.27
2024-01-21T20:29:24.648Z,-3.14
2024-01-21T20:31:52.767Z,-3.07
2024-01-21T20:34:21.337Z,-3.05
2024-01-21T20:36:49.490Z,-3.04
2024-01-21T20:39:17.788Z,-2.99
2024-01-21T20:41:46.380Z,-3.00
2024-01-21T20:44:14.751Z,-3.22
2024-01-21T20:46:42.772Z,-3.23
2024-01-21T20:49:11.386Z,-3.28
2024-01-21T20:51:39.601Z,-3.31
2024-01-21T20:54:08.944Z,-3.37
2024-01-21T20:56:37.604Z,-3.34
2024-01-21T20:59:05.629Z,-3.35
2024-01-21T21:01:35.491Z,-3.51
2024-01-21T21:04:04.193Z,-3.59
2024-01-21T21:06:32.649Z,-3.53
2024-01-21T21:09:01.024Z,-3.43
2024-01-21T21:11:29.574Z,-3.41
2024-01-21T21:13:58.040Z,-3.31
2024-01-21T21:16:26.875Z,-3.39
2024-01-21T21:18:56.233Z,-3.35
2024-01-21T21:21:24.382Z,-3.39
2024-01-21T21:23:52.421Z,-3.26
2024-01-21T21:26:20.698Z,-3.29
2024-01-21T21:28:48.681Z,-3.23
2024-01-21T21:31:16.953Z,-3.22
2024-01-21T21:33:45.865Z,-3.17
2024-01-21T21:36:15.848Z,-3.19
2024-01-21T21:38:47.002Z,-3.18
2024-01-21T21:41:15.352Z,-3.10
2024-01-21T21:43:43.446Z,-3.27
2024-01-21T21:46:11.693Z,-3.19
2024-01-21T21:48:40.490Z,-3.20
2024-01-21T21:51:08.880Z,-3.30
2024-01-21T21:53:36.913Z,-3.30
2024-01-21T21:56:06.111Z,-3.36
2024-01-21T21:58:34.135Z,-3.39
2024-01-21T22:01:02.414Z,-3.36
2024-01-21T22:03:33.173Z,-3.42
2024-01-21T22:06:03.998Z,-3.68
2024-01-21T22:08:34.098Z,-3.70
2024-01-21T22:11:03.571Z,-3.71
2024-01-21T22:13:32.867Z,-3.67
2024-01-21T22:16:00.890Z,-3.59
2024-01-21T22:18:29.277Z,-3.62
2024-01-21T22:20:57.754Z,-3.63
2024-01-21T22:23:26.228Z,-3.77
2024-01-21T22:25:55.397Z,-3.69
2024-01-21T22:28:23.602Z,-3.72
2024-01-21T22:30:53.760Z,-3.70
2024-01-21T22:33:21.843Z,-3.68
2024-01-21T22:35:50.239Z,-3.68
2024-01-21T22:38:18.274Z,-3.75
2024-01-21T22:40:46.196Z,-3.70
2024-01-21T22:43:14.691Z,-3.67
2024-01-21T22:45:43.023Z,-3.80
2024-01-21T22:48:11.340Z,-3.78
2024-01-21T22:50:40.633Z,-3.92
2024-01-21T22:53:09.227Z,-3.76
2024-01-21T22:55:37.209Z,-3.75
2024-01-21T22:58:05.904Z,-3.73
2024-01-21T23:00:34.350Z,-3.66
2024-01-21T23:03:02.603Z,-3.65
2024-01-21T23:05:30.702Z,-3.71
2024-01-21T23:07:58.978Z,-4.08
2024-01-21T23:10:27.225Z,-4.32
2024-01-21T23:12:55.219Z,-4.18
2024-01-21T23:15:23.612Z,-4.08
2024-01-21T23:17:51.688Z,-4.00
2024-01-21T23:20:19.914Z,-3.97
2024-01-21T23:22:48.254Z,-4.00
2024-01-21T23:25:16.327Z,-4.00
2024-01-21T23:27:44.241Z,-4.07
2024-01-21T23:30:12.654Z,-4.16
2024-01-21T23:32:41.029Z,-4.16
2024-01-21T23:35:09.127Z,-4.29
2024-01-21T23:37:37.424Z,-4.36
2024-01-21T23:40:06.104Z,-4.27
2024-01-21T23:42:34.195Z,-4.25
2024-01-21T23:45:02.818Z,-4.23
2024-01-21T23:47:30.922Z,-4.22
2024-01-21T23:49:58.917Z,-4.28
2024-01-21T23:52:27.096Z,-4.33
2024-01-21T23:54:55.798Z,-4.47
2024-01-21T23:57:23.680Z,-4.59
2024-01-21T23:59:52.573Z,-4.60
